createdAt,value
2023-01-19T00:00:02.290Z,96987.00
2023-01-19T00:00:12.337Z,96987.00
2023-01-19T00:00:22.385Z,96989.00
2023-01-19T00:00:32.502Z,96989.00
2023-01-19T00:00:42.549Z,96989.00
2023-01-19T00:00:52.443Z,96989.00
2023-01-19T00:01:02.574Z,96987.00
2023-01-19T00:01:12.593Z,96995.00
2023-01-19T00:01:22.586Z,96993.00
2023-01-19T00:01:32.594Z,96995.00
2023-01-19T00:01:42.604Z,96993.00
2023-01-19T00:01:52.598Z,96993.00
2023-01-19T00:02:02.728Z,96993.00
2023-01-19T00:02:12.720Z,96993.00
2023-01-19T00:02:22.891Z,96991.00
2023-01-19T00:02:32.811Z,96993.00
2023-01-19T00:02:42.835Z,96991.00
2023-01-19T00:02:53.180Z,96991.00
2023-01-19T00:03:03.232Z,96993.00
2023-01-19T00:03:13.128Z,96985.00
2023-01-19T00:03:23.517Z,96991.00
2023-01-19T00:03:33.512Z,96993.00
2023-01-19T00:03:43.635Z,96993.00
2023-01-19T00:03:53.899Z,96993.00
2023-01-19T00:04:03.900Z,96991.00
2023-01-19T00:04:13.937Z,96995.00
2023-01-19T00:04:23.929Z,96995.00
2023-01-19T00:04:33.932Z,96993.00
2023-01-19T00:04:43.965Z,96993.00
2023-01-19T00:04:53.965Z,96995.00
2023-01-19T00:05:03.967Z,96991.00
2023-01-19T00:05:13.956Z,96993.00
2023-01-19T00:05:23.986Z,96995.00
2023-01-19T00:05:33.976Z,96995.00
2023-01-19T00:05:44.031Z,96993.00
2023-01-19T00:05:54.118Z,96993.00
2023-01-19T00:06:04.248Z,96993.00
2023-01-19T00:06:14.202Z,96993.00
2023-01-19T00:06:24.268Z,96993.00
2023-01-19T00:06:34.457Z,96995.00
2023-01-19T00:06:44.502Z,96991.00
2023-01-19T00:06:54.502Z,96993.00
2023-01-19T00:07:04.516Z,96991.00
2023-01-19T00:07:14.516Z,96993.00
2023-01-19T00:07:24.525Z,96993.00
2023-01-19T00:07:34.546Z,96993.00
2023-01-19T00:07:44.543Z,96995.00
2023-01-19T00:07:54.554Z,96995.00
2023-01-19T00:08:04.675Z,96993.00
2023-01-19T00:08:15.003Z,96997.00
2023-01-19T00:08:24.950Z,96995.00
2023-01-19T00:08:34.961Z,96993.00
2023-01-19T00:08:44.962Z,96993.00
2023-01-19T00:08:54.993Z,96993.00
2023-01-19T00:09:04.997Z,96993.00
2023-01-19T00:09:15.000Z,96995.00
2023-01-19T00:09:25.028Z,96995.00
2023-01-19T00:09:35.037Z,96997.00
2023-01-19T00:09:45.026Z,96995.00
2023-01-19T00:09:55.044Z,96995.00
2023-01-19T00:10:05.053Z,96993.00
2023-01-19T00:10:15.063Z,96995.00
2023-01-19T00:10:25.087Z,96995.00
2023-01-19T00:10:35.081Z,96997.00
2023-01-19T00:10:45.087Z,96995.00
2023-01-19T00:10:55.094Z,96995.00
2023-01-19T00:11:05.121Z,96997.00
2023-01-19T00:11:15.119Z,96995.00
2023-01-19T00:11:25.132Z,96995.00
2023-01-19T00:11:35.137Z,96997.00
2023-01-19T00:11:45.151Z,96997.00
2023-01-19T00:11:55.197Z,96995.00
2023-01-19T00:12:05.318Z,96995.00
2023-01-19T00:12:15.325Z,96997.00
2023-01-19T00:12:25.596Z,96995.00
2023-01-19T00:12:35.601Z,96993.00
2023-01-19T00:12:45.613Z,96995.00
2023-01-19T00:12:55.616Z,96995.00
2023-01-19T00:13:05.636Z,96997.00
2023-01-19T00:13:15.656Z,96995.00
2023-01-19T00:13:25.710Z,96999.00
2023-01-19T00:13:35.719Z,96993.00
2023-01-19T00:13:45.847Z,96995.00
2023-01-19T00:13:55.847Z,96995.00
2023-01-19T00:14:06.101Z,96997.00
2023-01-19T00:14:16.103Z,96993.00
2023-01-19T00:14:26.112Z,96997.00
2023-01-19T00:14:36.118Z,96993.00
2023-01-19T00:14:46.135Z,96995.00
2023-01-19T00:14:56.135Z,96997.00
2023-01-19T00:15:06.149Z,96995.00
2023-01-19T00:15:16.170Z,96995.00
2023-01-19T00:15:26.203Z,96995.00
2023-01-19T00:15:36.189Z,96995.00
2023-01-19T00:15:46.571Z,96995.00
2023-01-19T00:15:56.639Z,96995.00
2023-01-19T00:16:06.723Z,96995.00
2023-01-19T00:16:16.796Z,96995.00
2023-01-19T00:16:26.869Z,96995.00
2023-01-19T00:16:36.876Z,96995.00
2023-01-19T00:16:46.869Z,96995.00
2023-01-19T00:16:56.895Z,96995.00
2023-01-19T00:17:06.882Z,96995.00
2023-01-19T00:17:16.893Z,96995.00
2023-01-19T00:17:27.263Z,96995.00
2023-01-19T00:17:37.269Z,96995.00
2023-01-19T00:17:47.386Z,96995.00
2023-01-19T00:17:57.671Z,96997.00
2023-01-19T00:18:09.812Z,96997.00
2023-01-19T00:18:17.787Z,96993.00
2023-01-19T00:18:27.903Z,96995.00
2023-01-19T00:18:37.900Z,96995.00
2023-01-19T00:18:48.047Z,96999.00
2023-01-19T00:18:58.039Z,96997.00
2023-01-19T00:19:08.054Z,96997.00
2023-01-19T00:19:18.181Z,96995.00
2023-01-19T00:19:28.299Z,96995.00
2023-01-19T00:19:38.328Z,96995.00
2023-01-19T00:19:48.583Z,96995.00
2023-01-19T00:19:58.588Z,96999.00
2023-01-19T00:20:08.705Z,96995.00
2023-01-19T00:20:18.971Z,96999.00
2023-01-19T00:20:29.104Z,96997.00
2023-01-19T00:20:39.137Z,96995.00
2023-01-19T00:20:49.398Z,96995.00
2023-01-19T00:20:59.405Z,96999.00
2023-01-19T00:21:09.400Z,96999.00
2023-01-19T00:21:19.420Z,96999.00
2023-01-19T00:21:29.433Z,96997.00
2023-01-19T00:21:39.450Z,96999.00
2023-01-19T00:21:49.440Z,96997.00
2023-01-19T00:21:59.465Z,97001.00
2023-01-19T00:22:09.602Z,96999.00
2023-01-19T00:22:19.613Z,96999.00
2023-01-19T00:22:29.865Z,97001.00
2023-01-19T00:22:39.870Z,96999.00
2023-01-19T00:22:49.988Z,96999.00
2023-01-19T00:23:00.763Z,97001.00
2023-01-19T00:23:10.362Z,97001.00
2023-01-19T00:23:20.386Z,97001.00
2023-01-19T00:23:30.654Z,96999.00
2023-01-19T00:23:40.652Z,96999.00
2023-01-19T00:23:50.666Z,97001.00
2023-01-19T00:24:00.673Z,96999.00
2023-01-19T00:24:10.797Z,96999.00
2023-01-19T00:24:20.794Z,96999.00
2023-01-19T00:24:30.806Z,96999.00
2023-01-19T00:24:40.873Z,97003.00
2023-01-19T00:24:50.888Z,97001.00
2023-01-19T00:25:00.880Z,96999.00
2023-01-19T00:25:11.138Z,97001.00
2023-01-19T00:25:21.131Z,97001.00
2023-01-19T00:25:31.262Z,97001.00
2023-01-19T00:25:41.527Z,97001.00
2023-01-19T00:25:51.669Z,97003.00
2023-01-19T00:26:01.688Z,97003.00
2023-01-19T00:26:11.941Z,97001.00
2023-01-19T00:26:22.011Z,97003.00
2023-01-19T00:26:31.972Z,97003.00
2023-01-19T00:26:42.010Z,97003.00
2023-01-19T00:26:52.008Z,97001.00
2023-01-19T00:27:02.019Z,97003.00
2023-01-19T00:27:12.134Z,97003.00
2023-01-19T00:27:22.140Z,97003.00
2023-01-19T00:27:32.261Z,97007.00
2023-01-19T00:27:42.264Z,97003.00
2023-01-19T00:27:52.394Z,97001.00
2023-01-19T00:28:02.405Z,97003.00
2023-01-19T00:28:12.406Z,97003.00
2023-01-19T00:28:22.396Z,97003.00
2023-01-19T00:28:32.404Z,97001.00
2023-01-19T00:28:42.405Z,97005.00
2023-01-19T00:28:52.527Z,97003.00
2023-01-19T00:29:02.540Z,97005.00
2023-01-19T00:29:12.660Z,97005.00
2023-01-19T00:29:22.662Z,97003.00
2023-01-19T00:29:32.785Z,97007.00
2023-01-19T00:29:42.795Z,97005.00
2023-01-19T00:29:52.788Z,97003.00
2023-01-19T00:30:02.793Z,97005.00
2023-01-19T00:30:12.949Z,97003.00
2023-01-19T00:30:22.926Z,97003.00
2023-01-19T00:30:32.949Z,97003.00
2023-01-19T00:30:42.957Z,97003.00
2023-01-19T00:30:53.081Z,97003.00
2023-01-19T00:31:03.084Z,97005.00
2023-01-19T00:31:13.241Z,97003.00
2023-01-19T00:31:23.285Z,97003.00
2023-01-19T00:31:33.458Z,97003.00
2023-01-19T00:31:43.413Z,97005.00
2023-01-19T00:31:53.440Z,97003.00
2023-01-19T00:32:03.448Z,97003.00
2023-01-19T00:32:13.460Z,97001.00
2023-01-19T00:32:23.467Z,97001.00
2023-01-19T00:32:33.585Z,97003.00
2023-01-19T00:32:43.583Z,97003.00
2023-01-19T00:32:53.835Z,97005.00
2023-01-19T00:33:04.194Z,97003.00
2023-01-19T00:33:13.936Z,97003.00
2023-01-19T00:33:23.919Z,97001.00
2023-01-19T00:33:33.936Z,97003.00
2023-01-19T00:33:43.927Z,97003.00
2023-01-19T00:33:53.924Z,97005.00
2023-01-19T00:34:03.929Z,97003.00
2023-01-19T00:34:14.082Z,97007.00
2023-01-19T00:34:24.073Z,97005.00
2023-01-19T00:34:34.338Z,97003.00
2023-01-19T00:34:44.344Z,97003.00
2023-01-19T00:34:54.463Z,97003.00
2023-01-19T00:35:04.727Z,97005.00
2023-01-19T00:35:14.736Z,97003.00
2023-01-19T00:35:24.764Z,97003.00
2023-01-19T00:35:34.772Z,97007.00
2023-01-19T00:35:44.769Z,97007.00
2023-01-19T00:35:54.785Z,97007.00
2023-01-19T00:36:04.792Z,97007.00
2023-01-19T00:36:14.796Z,97005.00
2023-01-19T00:36:24.810Z,97005.00
2023-01-19T00:36:34.813Z,97005.00
2023-01-19T00:36:44.841Z,97003.00
2023-01-19T00:36:54.820Z,97005.00
2023-01-19T00:37:04.916Z,97007.00
2023-01-19T00:37:14.918Z,97007.00
2023-01-19T00:37:24.933Z,97009.00
2023-01-19T00:37:34.949Z,97007.00
2023-01-19T00:37:45.045Z,97007.00
2023-01-19T00:37:55.308Z,97009.00
2023-01-19T00:38:05.316Z,97007.00
2023-01-19T00:38:15.372Z,97011.00
2023-01-19T00:38:25.391Z,97009.00
2023-01-19T00:38:35.414Z,97009.00
2023-01-19T00:38:45.442Z,97007.00
2023-01-19T00:38:55.439Z,97007.00
2023-01-19T00:39:05.589Z,97005.00
2023-01-19T00:39:15.581Z,97009.00
2023-01-19T00:39:25.586Z,97007.00
2023-01-19T00:39:35.846Z,97007.00
2023-01-19T00:39:45.968Z,97009.00
2023-01-19T00:39:55.981Z,97009.00
2023-01-19T00:40:06.235Z,97005.00
2023-01-19T00:40:16.244Z,97007.00
2023-01-19T00:40:26.244Z,97007.00
2023-01-19T00:40:36.254Z,97007.00
2023-01-19T00:40:46.272Z,97007.00
2023-01-19T00:40:56.280Z,97007.00
2023-01-19T00:41:06.286Z,97007.00
2023-01-19T00:41:16.332Z,97009.00
2023-01-19T00:41:26.452Z,97007.00
2023-01-19T00:41:36.450Z,97007.00
2023-01-19T00:41:46.710Z,97009.00
2023-01-19T00:41:56.715Z,97009.00
2023-01-19T00:42:06.833Z,97011.00
2023-01-19T00:42:17.104Z,97011.00
2023-01-19T00:42:27.104Z,97009.00
2023-01-19T00:42:37.110Z,97011.00
2023-01-19T00:42:47.488Z,97009.00
2023-01-19T00:42:57.771Z,97009.00
2023-01-19T00:43:07.624Z,97009.00
2023-01-19T00:43:17.890Z,97007.00
2023-01-19T00:43:27.886Z,97009.00
2023-01-19T00:43:37.883Z,97009.00
2023-01-19T00:43:47.918Z,97009.00
2023-01-19T00:43:57.918Z,97009.00
2023-01-19T00:44:08.046Z,97009.00
2023-01-19T00:44:18.066Z,97009.00
2023-01-19T00:44:28.070Z,97013.00
2023-01-19T00:44:38.068Z,97007.00
2023-01-19T00:44:48.202Z,97009.00
2023-01-19T00:44:58.391Z,97009.00
2023-01-19T00:45:08.376Z,97007.00
2023-01-19T00:45:18.377Z,97007.00
2023-01-19T00:45:28.415Z,97009.00
2023-01-19T00:45:38.496Z,97011.00
2023-01-19T00:45:48.529Z,97005.00
2023-01-19T00:45:58.688Z,97011.00
2023-01-19T00:46:08.727Z,97007.00
2023-01-19T00:46:18.630Z,97011.00
2023-01-19T00:46:28.753Z,97007.00
2023-01-19T00:46:39.013Z,97009.00
2023-01-19T00:46:49.027Z,97011.00
2023-01-19T00:46:59.035Z,97011.00
2023-01-19T00:47:09.047Z,97009.00
2023-01-19T00:47:19.054Z,97009.00
2023-01-19T00:47:29.066Z,97013.00
2023-01-19T00:47:39.070Z,97009.00
2023-01-19T00:47:49.095Z,97011.00
2023-01-19T00:47:59.099Z,97009.00
2023-01-19T00:48:09.103Z,97011.00
2023-01-19T00:48:19.107Z,97011.00
2023-01-19T00:48:29.107Z,97011.00
2023-01-19T00:48:39.119Z,97011.00
2023-01-19T00:48:49.115Z,97011.00
2023-01-19T00:48:59.134Z,97009.00
2023-01-19T00:49:09.122Z,97011.00
2023-01-19T00:49:19.119Z,97011.00
2023-01-19T00:49:29.127Z,97011.00
2023-01-19T00:49:39.134Z,97011.00
2023-01-19T00:49:49.147Z,97011.00
2023-01-19T00:49:59.178Z,97011.00
2023-01-19T00:50:09.196Z,97011.00
2023-01-19T00:50:19.202Z,97011.00
2023-01-19T00:50:29.203Z,97011.00
2023-01-19T00:50:39.201Z,97011.00
2023-01-19T00:50:49.331Z,97011.00
2023-01-19T00:50:59.335Z,97013.00
2023-01-19T00:51:09.340Z,97011.00
2023-01-19T00:51:19.342Z,97013.00
2023-01-19T00:51:29.466Z,97013.00
2023-01-19T00:51:39.470Z,97013.00
2023-01-19T00:51:49.646Z,97015.00
2023-01-19T00:51:59.631Z,97013.00
2023-01-19T00:52:09.641Z,97015.00
2023-01-19T00:52:19.644Z,97015.00
2023-01-19T00:52:29.653Z,97015.00
2023-01-19T00:52:39.652Z,97015.00
2023-01-19T00:52:49.657Z,97015.00
2023-01-19T00:53:00.079Z,97017.00
2023-01-19T00:53:09.782Z,97017.00
2023-01-19T00:53:19.777Z,97017.00
2023-01-19T00:53:30.059Z,97017.00
2023-01-19T00:53:40.050Z,97015.00
2023-01-19T00:53:50.174Z,97017.00
2023-01-19T00:54:00.435Z,97015.00
2023-01-19T00:54:10.529Z,97017.00
2023-01-19T00:54:20.527Z,97017.00
2023-01-19T00:54:30.924Z,97015.00
2023-01-19T00:54:40.929Z,97015.00
2023-01-19T00:54:50.944Z,97017.00
2023-01-19T00:55:00.949Z,97017.00
2023-01-19T00:55:10.974Z,97015.00
2023-01-19T00:55:20.964Z,97017.00
2023-01-19T00:55:31.088Z,97015.00
2023-01-19T00:55:41.093Z,97017.00
2023-01-19T00:55:51.093Z,97017.00
2023-01-19T00:56:01.112Z,97017.00
2023-01-19T00:56:11.365Z,97015.00
2023-01-19T00:56:21.370Z,97017.00
2023-01-19T00:56:31.494Z,97017.00
2023-01-19T00:56:41.752Z,97017.00
2023-01-19T00:56:51.756Z,97017.00
2023-01-19T00:57:01.763Z,97015.00
2023-01-19T00:57:11.773Z,97015.00
2023-01-19T00:57:21.792Z,97017.00
2023-01-19T00:57:31.795Z,97017.00
2023-01-19T00:57:41.802Z,97015.00
2023-01-19T00:57:51.851Z,97017.00
2023-01-19T00:58:01.863Z,97015.00
2023-01-19T00:58:12.047Z,97017.00
2023-01-19T00:58:21.944Z,97017.00
2023-01-19T00:58:31.952Z,97017.00
2023-01-19T00:58:41.978Z,97017.00
2023-01-19T00:58:51.980Z,97017.00
2023-01-19T00:59:01.982Z,97019.00
2023-01-19T00:59:12.138Z,97017.00
2023-01-19T00:59:22.133Z,97019.00
2023-01-19T00:59:32.383Z,97017.00
2023-01-19T00:59:42.397Z,97019.00
2023-01-19T00:59:52.398Z,97017.00
2023-01-19T01:00:02.398Z,97017.00
2023-01-19T01:00:12.551Z,97019.00
2023-01-19T01:00:22.537Z,97019.00
2023-01-19T01:00:32.551Z,97021.00
2023-01-19T01:00:42.610Z,97021.00
2023-01-19T01:00:52.742Z,97023.00
2023-01-19T01:01:02.753Z,97019.00
2023-01-19T01:01:12.993Z,97021.00
2023-01-19T01:01:23.123Z,97019.00
2023-01-19T01:01:45.273Z,97019.00
2023-01-19T01:01:45.446Z,97019.00
2023-01-19T01:01:53.507Z,97019.00
2023-01-19T01:02:03.586Z,97021.00
2023-01-19T01:02:13.557Z,97023.00
2023-01-19T01:02:23.612Z,97021.00
2023-01-19T01:02:33.753Z,97021.00
2023-01-19T01:02:43.690Z,97021.00
2023-01-19T01:02:53.879Z,97021.00
2023-01-19T01:03:04.437Z,97021.00
2023-01-19T01:03:14.102Z,97019.00
2023-01-19T01:03:23.934Z,97019.00
2023-01-19T01:03:33.957Z,97021.00
2023-01-19T01:03:43.965Z,97021.00
2023-01-19T01:03:53.972Z,97019.00
2023-01-19T01:04:03.987Z,97021.00
2023-01-19T01:04:13.994Z,97021.00
2023-01-19T01:04:24.002Z,97023.00
2023-01-19T01:04:34.012Z,97021.00
2023-01-19T01:04:44.023Z,97023.00
2023-01-19T01:04:54.033Z,97021.00
2023-01-19T01:05:04.040Z,97025.00
2023-01-19T01:05:14.054Z,97023.00
2023-01-19T01:05:24.084Z,97023.00
2023-01-19T01:05:34.084Z,97023.00
2023-01-19T01:05:44.104Z,97025.00
2023-01-19T01:05:54.110Z,97023.00
2023-01-19T01:06:04.101Z,97023.00
2023-01-19T01:06:14.111Z,97021.00
2023-01-19T01:06:24.130Z,97023.00
2023-01-19T01:06:34.244Z,97021.00
2023-01-19T01:06:44.242Z,97025.00
2023-01-19T01:06:54.526Z,97023.00
2023-01-19T01:07:04.511Z,97025.00
2023-01-19T01:07:15.401Z,97025.00
2023-01-19T01:07:24.653Z,97021.00
2023-01-19T01:07:34.702Z,97021.00
2023-01-19T01:07:44.741Z,97021.00
2023-01-19T01:07:54.746Z,97023.00
2023-01-19T01:08:04.743Z,97021.00
2023-01-19T01:08:14.764Z,97021.00
2023-01-19T01:08:24.772Z,97023.00
2023-01-19T01:08:34.772Z,97021.00
2023-01-19T01:08:44.777Z,97021.00
2023-01-19T01:08:54.781Z,97021.00
2023-01-19T01:09:04.778Z,97021.00
2023-01-19T01:09:14.916Z,97021.00
2023-01-19T01:09:24.926Z,97023.00
2023-01-19T01:09:35.034Z,97023.00
2023-01-19T01:09:45.188Z,97021.00
2023-01-19T01:09:55.181Z,97021.00
2023-01-19T01:10:05.200Z,97023.00
2023-01-19T01:10:15.186Z,97021.00
2023-01-19T01:10:25.200Z,97019.00
2023-01-19T01:10:35.318Z,97021.00
2023-01-19T01:10:45.319Z,97023.00
2023-01-19T01:10:55.451Z,97021.00
2023-01-19T01:11:05.458Z,97023.00
2023-01-19T01:11:15.476Z,97021.00
2023-01-19T01:11:25.615Z,97019.00
2023-01-19T01:11:35.626Z,97021.00
2023-01-19T01:11:45.647Z,97019.00
2023-01-19T01:11:55.645Z,97021.00
2023-01-19T01:12:06.078Z,97021.00
2023-01-19T01:12:15.765Z,97021.00
2023-01-19T01:12:25.919Z,97021.00
2023-01-19T01:12:35.803Z,97023.00
2023-01-19T01:12:57.493Z,97021.00
2023-01-19T01:12:58.049Z,97023.00
2023-01-19T01:13:20.700Z,97019.00
2023-01-19T01:13:21.273Z,97021.00
2023-01-19T01:13:27.611Z,97021.00
2023-01-19T01:13:36.173Z,97019.00
2023-01-19T01:13:46.173Z,97023.00
2023-01-19T01:13:56.286Z,97021.00
2023-01-19T01:14:06.317Z,97021.00
2023-01-19T01:14:16.362Z,97021.00
2023-01-19T01:14:26.496Z,97021.00
2023-01-19T01:14:36.608Z,97021.00
2023-01-19T01:14:46.632Z,97019.00
2023-01-19T01:14:56.942Z,97021.00
2023-01-19T01:15:06.939Z,97019.00
2023-01-19T01:15:16.950Z,97019.00
2023-01-19T01:15:26.964Z,97021.00
2023-01-19T01:15:36.967Z,97017.00
2023-01-19T01:15:46.981Z,97021.00
2023-01-19T01:15:57.012Z,97021.00
2023-01-19T01:16:07.103Z,97021.00
2023-01-19T01:16:17.132Z,97021.00
2023-01-19T01:16:27.150Z,97021.00
2023-01-19T01:16:37.199Z,97019.00
2023-01-19T01:16:47.284Z,97021.00
2023-01-19T01:16:57.281Z,97017.00
2023-01-19T01:17:07.301Z,97019.00
2023-01-19T01:17:17.316Z,97019.00
2023-01-19T01:17:27.313Z,97019.00
2023-01-19T01:17:37.439Z,97019.00
2023-01-19T01:17:47.706Z,97021.00
2023-01-19T01:17:57.840Z,97021.00
2023-01-19T01:18:07.829Z,97021.00
2023-01-19T01:18:18.159Z,97021.00
2023-01-19T01:18:28.234Z,97021.00
2023-01-19T01:18:38.264Z,97021.00
2023-01-19T01:18:48.295Z,97019.00
2023-01-19T01:18:58.331Z,97023.00
2023-01-19T01:19:08.392Z,97021.00
2023-01-19T01:19:18.425Z,97023.00
2023-01-19T01:19:28.577Z,97021.00
2023-01-19T01:19:38.618Z,97023.00
2023-01-19T01:19:48.653Z,97023.00
2023-01-19T01:19:58.955Z,97021.00
2023-01-19T01:20:08.960Z,97023.00
2023-01-19T01:20:18.958Z,97023.00
2023-01-19T01:20:28.962Z,97023.00
2023-01-19T01:20:38.969Z,97027.00
2023-01-19T01:20:49.096Z,97027.00
2023-01-19T01:20:59.109Z,97025.00
2023-01-19T01:21:09.237Z,97029.00
2023-01-19T01:21:19.240Z,97027.00
2023-01-19T01:21:29.380Z,97025.00
2023-01-19T01:21:39.396Z,97027.00
2023-01-19T01:21:49.401Z,97027.00
2023-01-19T01:21:59.451Z,97027.00
2023-01-19T01:22:09.606Z,97027.00
2023-01-19T01:22:19.525Z,97027.00
2023-01-19T01:22:29.505Z,97027.00
2023-01-19T01:22:39.524Z,97027.00
2023-01-19T01:22:49.665Z,97025.00
2023-01-19T01:23:00.158Z,97029.00
2023-01-19T01:23:09.761Z,97029.00
2023-01-19T01:23:19.776Z,97029.00
2023-01-19T01:23:29.781Z,97029.00
2023-01-19T01:23:39.793Z,97027.00
2023-01-19T01:23:49.819Z,97029.00
2023-01-19T01:23:59.841Z,97029.00
2023-01-19T01:24:09.853Z,97029.00
2023-01-19T01:24:19.867Z,97030.00
2023-01-19T01:24:29.868Z,97029.00
2023-01-19T01:24:39.888Z,97030.00
2023-01-19T01:24:49.889Z,97030.00
2023-01-19T01:24:59.904Z,97032.00
2023-01-19T01:25:09.921Z,97032.00
2023-01-19T01:25:19.947Z,97030.00
2023-01-19T01:25:29.958Z,97032.00
2023-01-19T01:25:39.959Z,97032.00
2023-01-19T01:25:49.970Z,97029.00
2023-01-19T01:25:59.979Z,97030.00
2023-01-19T01:26:09.976Z,97030.00
2023-01-19T01:26:19.983Z,97030.00
2023-01-19T01:26:29.995Z,97030.00
2023-01-19T01:26:39.994Z,97030.00
2023-01-19T01:26:50.004Z,97034.00
2023-01-19T01:27:00.006Z,97032.00
2023-01-19T01:27:10.011Z,97036.00
2023-01-19T01:27:20.021Z,97036.00
2023-01-19T01:27:30.042Z,97036.00
2023-01-19T01:27:40.050Z,97032.00
2023-01-19T01:27:50.066Z,97034.00
2023-01-19T01:28:00.133Z,97036.00
2023-01-19T01:28:10.262Z,97034.00
2023-01-19T01:28:20.270Z,97036.00
2023-01-19T01:28:30.271Z,97036.00
2023-01-19T01:28:40.288Z,97036.00
2023-01-19T01:28:50.396Z,97038.00
2023-01-19T01:29:00.396Z,97038.00
2023-01-19T01:29:10.535Z,97038.00
2023-01-19T01:29:20.527Z,97036.00
2023-01-19T01:29:30.535Z,97038.00
2023-01-19T01:29:40.523Z,97038.00
2023-01-19T01:29:50.652Z,97038.00
2023-01-19T01:30:00.662Z,97038.00
2023-01-19T01:30:10.778Z,97038.00
2023-01-19T01:30:20.784Z,97038.00
2023-01-19T01:30:30.780Z,97040.00
2023-01-19T01:30:40.783Z,97038.00
2023-01-19T01:30:50.922Z,97040.00
2023-01-19T01:31:00.928Z,97038.00
2023-01-19T01:31:10.937Z,97038.00
2023-01-19T01:31:21.071Z,97038.00
2023-01-19T01:31:30.983Z,97036.00
2023-01-19T01:31:41.113Z,97038.00
2023-01-19T01:31:51.108Z,97036.00
2023-01-19T01:32:01.236Z,97038.00
2023-01-19T01:32:11.363Z,97038.00
2023-01-19T01:32:21.375Z,97038.00
2023-01-19T01:32:31.633Z,97038.00
2023-01-19T01:32:41.623Z,97036.00
2023-01-19T01:32:51.744Z,97038.00
2023-01-19T01:33:02.499Z,97036.00
2023-01-19T01:33:12.062Z,97036.00
2023-01-19T01:33:39.796Z,97036.00
2023-01-19T01:33:40.042Z,97040.00
2023-01-19T01:33:42.149Z,97040.00
2023-01-19T01:33:52.128Z,97040.00
2023-01-19T01:34:02.152Z,97040.00
2023-01-19T01:34:12.229Z,97040.00
2023-01-19T01:34:22.221Z,97038.00
2023-01-19T01:34:32.344Z,97042.00
2023-01-19T01:34:42.346Z,97040.00
2023-01-19T01:34:52.348Z,97042.00
2023-01-19T01:35:02.351Z,97038.00
2023-01-19T01:35:12.467Z,97040.00
2023-01-19T01:35:22.464Z,97040.00
2023-01-19T01:35:32.587Z,97042.00
2023-01-19T01:35:42.589Z,97038.00
2023-01-19T01:35:52.707Z,97040.00
2023-01-19T01:36:02.720Z,97040.00
2023-01-19T01:36:12.745Z,97042.00
2023-01-19T01:36:22.750Z,97042.00
2023-01-19T01:36:32.881Z,97042.00
2023-01-19T01:36:43.148Z,97042.00
2023-01-19T01:36:53.275Z,97040.00
2023-01-19T01:37:03.294Z,97042.00
2023-01-19T01:37:13.525Z,97038.00
2023-01-19T01:37:23.528Z,97038.00
2023-01-19T01:37:33.529Z,97040.00
2023-01-19T01:37:43.526Z,97042.00
2023-01-19T01:37:53.651Z,97042.00
2023-01-19T01:38:03.658Z,97040.00
2023-01-19T01:38:13.661Z,97042.00
2023-01-19T01:38:23.664Z,97040.00
2023-01-19T01:38:33.659Z,97040.00
2023-01-19T01:38:43.659Z,97040.00
2023-01-19T01:38:53.913Z,97042.00
2023-01-19T01:39:03.930Z,97042.00
2023-01-19T01:39:13.934Z,97042.00
2023-01-19T01:39:23.935Z,97042.00
2023-01-19T01:39:33.944Z,97040.00
2023-01-19T01:39:43.955Z,97044.00
2023-01-19T01:39:53.971Z,97042.00
2023-01-19T01:40:04.009Z,97042.00
2023-01-19T01:40:13.999Z,97042.00
2023-01-19T01:40:24.012Z,97042.00
2023-01-19T01:40:34.000Z,97044.00
2023-01-19T01:40:44.011Z,97044.00
2023-01-19T01:40:54.008Z,97042.00
2023-01-19T01:41:04.008Z,97044.00
2023-01-19T01:41:14.134Z,97044.00
2023-01-19T01:41:25.518Z,97046.00
2023-01-19T01:41:34.220Z,97046.00
2023-01-19T01:41:44.324Z,97046.00
2023-01-19T01:41:54.665Z,97050.00
2023-01-19T01:42:04.681Z,97050.00
2023-01-19T01:42:14.804Z,97048.00
2023-01-19T01:42:24.811Z,97048.00
2023-01-19T01:42:34.809Z,97048.00
2023-01-19T01:42:44.810Z,97046.00
2023-01-19T01:42:54.941Z,97048.00
2023-01-19T01:43:04.949Z,97050.00
2023-01-19T01:43:14.948Z,97050.00
2023-01-19T01:43:24.949Z,97050.00
2023-01-19T01:43:35.352Z,97050.00
2023-01-19T01:43:45.351Z,97052.00
2023-01-19T01:43:55.467Z,97048.00
2023-01-19T01:44:05.724Z,97050.00
2023-01-19T01:44:15.727Z,97050.00
2023-01-19T01:44:25.745Z,97050.00
2023-01-19T01:44:35.744Z,97048.00
2023-01-19T01:44:45.764Z,97046.00
2023-01-19T01:44:55.774Z,97050.00
2023-01-19T01:45:05.768Z,97050.00
2023-01-19T01:45:15.895Z,97050.00
2023-01-19T01:45:25.891Z,97048.00
2023-01-19T01:45:36.054Z,97048.00
2023-01-19T01:45:46.262Z,97048.00
2023-01-19T01:45:56.372Z,97048.00
2023-01-19T01:46:06.448Z,97048.00
2023-01-19T01:46:16.736Z,97046.00
2023-01-19T01:46:26.658Z,97046.00
2023-01-19T01:46:36.663Z,97048.00
2023-01-19T01:46:46.668Z,97048.00
2023-01-19T01:46:56.684Z,97048.00
2023-01-19T01:47:06.707Z,97046.00
2023-01-19T01:47:16.720Z,97050.00
2023-01-19T01:47:26.722Z,97046.00
2023-01-19T01:47:36.783Z,97046.00
2023-01-19T01:47:46.779Z,97044.00
2023-01-19T01:47:56.788Z,97048.00
2023-01-19T01:48:06.791Z,97048.00
2023-01-19T01:48:16.912Z,97046.00
2023-01-19T01:48:26.942Z,97048.00
2023-01-19T01:48:36.975Z,97046.00
2023-01-19T01:48:46.975Z,97046.00
2023-01-19T01:48:56.976Z,97048.00
2023-01-19T01:49:07.249Z,97046.00
2023-01-19T01:49:17.244Z,97048.00
2023-01-19T01:49:27.246Z,97048.00
2023-01-19T01:49:37.249Z,97048.00
2023-01-19T01:49:47.259Z,97046.00
2023-01-19T01:49:57.267Z,97044.00
2023-01-19T01:50:07.274Z,97044.00
2023-01-19T01:50:17.292Z,97046.00
2023-01-19T01:50:27.297Z,97046.00
2023-01-19T01:50:37.305Z,97046.00
2023-01-19T01:50:47.311Z,97044.00
2023-01-19T01:50:57.446Z,97048.00
2023-01-19T01:51:07.445Z,97046.00
2023-01-19T01:51:17.587Z,97044.00
2023-01-19T01:51:27.596Z,97048.00
2023-01-19T01:51:37.602Z,97044.00
2023-01-19T01:51:47.613Z,97044.00
2023-01-19T01:51:57.740Z,97048.00
2023-01-19T01:52:07.770Z,97044.00
2023-01-19T01:52:17.760Z,97046.00
2023-01-19T01:52:27.763Z,97046.00
2023-01-19T01:52:37.777Z,97046.00
2023-01-19T01:53:06.319Z,97046.00
2023-01-19T01:53:06.846Z,97048.00
2023-01-19T01:53:08.314Z,97044.00
2023-01-19T01:53:18.020Z,97044.00
2023-01-19T01:53:28.023Z,97048.00
2023-01-19T01:53:38.025Z,97044.00
2023-01-19T01:53:48.027Z,97050.00
2023-01-19T01:53:58.157Z,97048.00
2023-01-19T01:54:08.175Z,97050.00
2023-01-19T01:54:18.283Z,97048.00
2023-01-19T01:54:28.421Z,97050.00
2023-01-19T01:54:38.414Z,97048.00
2023-01-19T01:54:48.413Z,97048.00
2023-01-19T01:54:58.418Z,97048.00
2023-01-19T01:55:08.425Z,97050.00
2023-01-19T01:55:18.557Z,97048.00
2023-01-19T01:55:28.544Z,97050.00
2023-01-19T01:55:38.672Z,97050.00
2023-01-19T01:55:48.665Z,97052.00
2023-01-19T01:55:58.795Z,97050.00
2023-01-19T01:56:08.797Z,97050.00
2023-01-19T01:56:18.932Z,97050.00
2023-01-19T01:56:28.932Z,97050.00
2023-01-19T01:56:39.182Z,97052.00
2023-01-19T01:56:49.176Z,97050.00
2023-01-19T01:56:59.323Z,97050.00
2023-01-19T01:57:09.586Z,97052.00
2023-01-19T01:57:19.636Z,97048.00
2023-01-19T01:57:29.647Z,97050.00
2023-01-19T01:57:39.658Z,97048.00
2023-01-19T01:57:49.666Z,97050.00
2023-01-19T01:57:59.675Z,97050.00